Time;durP1;ratioP1;P1;durP2;ratioP2;P2;SDS_P1;SDS_P2;PMS_P1;PMS_P2;Temp;Humidity;BMP_temperature;BMP_pressure;BME280_temperature;BME280_humidity;BME280_pressure;Samples;Min_cycle;Max_cycle;Signal;HPM_P1;HPM_P2
2024/02/25 00:00:25;;;;;;;2.90;1.25;;;6.80;99.90;;;;;;4090911;28;20035;-67
2024/02/25 00:02:25;;;;;;;3.97;1.08;;;6.80;99.90;;;;;;4092144;28;20051;-67
2024/02/25 00:04:26;;;;;;;6.07;1.50;;;6.70;99.90;;;;;;4092144;28;20122;-66
2024/02/25 00:06:27;;;;;;;4.07;1.40;;;6.70;99.90;;;;;;4090331;28;20039;-66
2024/02/25 00:08:27;;;;;;;3.22;1.25;;;6.70;99.90;;;;;;4088719;28;20134;-65
2024/02/25 00:10:28;;;;;;;2.28;1.20;;;6.80;99.90;;;;;;4091325;28;20401;-66
2024/02/25 00:12:28;;;;;;;4.15;1.35;;;6.70;99.90;;;;;;4092913;28;20135;-67
2024/02/25 00:14:29;;;;;;;2.60;1.30;;;6.70;99.90;;;;;;4092518;28;20058;-67
2024/02/25 00:16:30;;;;;;;3.53;1.30;;;6.80;99.90;;;;;;4097456;28;20493;-67
2024/02/25 00:18:31;;;;;;;4.97;1.13;;;6.70;99.90;;;;;;4094410;28;20039;-69
2024/02/25 00:20:31;;;;;;;2.55;1.25;;;6.70;99.90;;;;;;4092343;28;20035;-69
2024/02/25 00:22:32;;;;;;;2.55;1.20;;;6.80;99.90;;;;;;4093933;28;20422;-68
2024/02/25 00:24:33;;;;;;;1.55;0.80;;;6.80;99.90;;;;;;4089898;28;20043;-67
2024/02/25 00:26:33;;;;;;;1.92;1.00;;;6.80;99.90;;;;;;4090583;28;20055;-70
2024/02/25 00:28:34;;;;;;;2.15;0.95;;;6.70;99.90;;;;;;4094112;28;20229;-68
2024/02/25 00:30:34;;;;;;;4.03;1.50;;;6.80;99.90;;;;;;4091927;28;20055;-67
2024/02/25 00:32:35;;;;;;;2.30;0.90;;;6.80;99.90;;;;;;4091779;28;20038;-67
2024/02/25 00:34:36;;;;;;;3.75;0.95;;;6.80;99.90;;;;;;4092428;28;20121;-68
2024/02/25 00:36:38;;;;;;;2.78;1.20;;;6.80;99.90;;;;;;4094560;28;20548;-67
2024/02/25 00:38:39;;;;;;;3.75;1.30;;;6.80;99.90;;;;;;4087230;28;20117;-70
2024/02/25 00:40:40;;;;;;;3.40;1.10;;;6.80;99.90;;;;;;4093767;28;20122;-67
2024/02/25 00:42:41;;;;;;;3.55;1.27;;;6.80;99.90;;;;;;4096398;28;20023;-68
2024/02/25 00:44:45;;;;;;;2.08;1.02;;;6.80;99.90;;;;;;4085698;28;20086;-67
2024/02/25 00:46:46;;;;;;;2.42;1.25;;;6.80;99.90;;;;;;4094458;28;20043;-68
2024/02/25 00:48:47;;;;;;;2.58;1.10;;;6.80;99.90;;;;;;4079948;28;20406;-68
2024/02/25 00:50:47;;;;;;;4.10;1.30;;;6.80;99.90;;;;;;4096005;28;20036;-67
2024/02/25 00:52:48;;;;;;;2.03;1.10;;;6.90;99.90;;;;;;4090172;29;20118;-66
2024/02/25 00:54:48;;;;;;;2.75;1.30;;;6.90;99.90;;;;;;4084628;29;20114;-70
2024/02/25 00:56:49;;;;;;;4.90;1.48;;;6.90;99.90;;;;;;4094188;28;20032;-67
2024/02/25 00:58:49;;;;;;;3.83;1.02;;;6.90;99.90;;;;;;4094416;28;20123;-66
2024/02/25 01:00:50;;;;;;;3.13;1.25;;;6.90;99.90;;;;;;4091989;28;20035;-67
2024/02/25 01:02:51;;;;;;;4.20;1.67;;;6.90;99.90;;;;;;4096687;28;20054;-67
2024/02/25 01:04:51;;;;;;;1.95;1.15;;;7.00;99.90;;;;;;4096213;28;20043;-69
2024/02/25 01:06:52;;;;;;;2.08;0.85;;;7.00;99.90;;;;;;4094708;28;20035;-67
2024/02/25 01:08:52;;;;;;;1.80;1.00;;;7.00;99.90;;;;;;4094962;28;20035;-68
2024/02/25 01:10:53;;;;;;;2.15;0.90;;;7.00;99.90;;;;;;4095638;28;20043;-67
2024/02/25 01:12:54;;;;;;;2.05;1.00;;;7.00;99.90;;;;;;4096736;28;20088;-68
2024/02/25 01:14:54;;;;;;;3.08;1.10;;;7.00;99.90;;;;;;4092315;28;20089;-67
2024/02/25 01:16:55;;;;;;;2.75;0.93;;;7.00;99.90;;;;;;4095239;28;20123;-68
2024/02/25 01:18:56;;;;;;;2.67;0.90;;;7.00;99.90;;;;;;4095845;28;20038;-67
2024/02/25 01:20:57;;;;;;;2.35;1.02;;;7.00;99.90;;;;;;4076822;29;20134;-67
2024/02/25 01:22:57;;;;;;;2.33;0.77;;;7.00;99.90;;;;;;4096370;28;20035;-68
2024/02/25 01:24:58;;;;;;;2.85;1.10;;;7.00;99.90;;;;;;4096609;29;20126;-67
2024/02/25 01:26:58;;;;;;;2.10;1.15;;;7.00;99.90;;;;;;4094148;28;20035;-66
2024/02/25 01:28:59;;;;;;;2.25;1.20;;;7.00;99.90;;;;;;4095595;28;20115;-67
2024/02/25 01:31:01;;;;;;;1.55;0.73;;;7.00;99.90;;;;;;4093971;28;20425;-67
2024/02/25 01:33:02;;;;;;;2.05;0.98;;;7.10;99.90;;;;;;4095760;28;20078;-66
2024/02/25 01:35:03;;;;;;;2.83;1.00;;;7.10;99.90;;;;;;4095260;28;20043;-68
2024/02/25 01:37:04;;;;;;;1.13;0.75;;;7.10;99.90;;;;;;4092311;28;20057;-70
2024/02/25 01:39:06;;;;;;;2.50;0.73;;;7.10;99.90;;;;;;4093513;28;20046;-68
2024/02/25 01:41:06;;;;;;;1.55;0.90;;;7.10;99.90;;;;;;4093821;28;20027;-67
2024/02/25 01:43:20;;;;;;;9.35;1.02;;;7.10;99.90;;;;;;4056776;29;20119;-68
2024/02/25 01:45:20;;;;;;;1.25;0.95;;;7.10;99.90;;;;;;4089094;28;20050;-68
2024/02/25 01:47:21;;;;;;;2.03;0.98;;;7.10;99.90;;;;;;4092423;28;20039;-68
2024/02/25 01:49:22;;;;;;;2.00;0.82;;;7.10;99.90;;;;;;4083646;29;20036;-68
2024/02/25 01:51:23;;;;;;;5.07;1.20;;;7.20;99.90;;;;;;4095114;28;20050;-68
2024/02/25 01:53:26;;;;;;;1.57;0.97;;;7.10;99.90;;;;;;4092667;28;20050;-68
2024/02/25 01:55:34;;;;;;;2.13;1.10;;;7.20;99.90;;;;;;4095604;28;20653;-70
2024/02/25 01:57:35;;;;;;;2.58;0.80;;;7.20;99.90;;;;;;4094499;28;20035;-68
2024/02/25 01:59:36;;;;;;;3.13;0.85;;;7.20;99.90;;;;;;4096332;28;20039;-68
2024/02/25 02:01:36;;;;;;;2.58;0.60;;;7.20;99.90;;;;;;4091259;28;20098;-67
2024/02/25 02:03:37;;;;;;;1.48;0.70;;;7.20;99.90;;;;;;4095811;28;20039;-67
2024/02/25 02:05:39;;;;;;;2.33;0.70;;;7.20;99.90;;;;;;4094867;28;20034;-68
2024/02/25 02:07:40;;;;;;;0.90;0.57;;;7.20;99.90;;;;;;4090417;28;20031;-68
2024/02/25 02:09:41;;;;;;;0.88;0.63;;;7.30;99.90;;;;;;4095389;28;20517;-67
2024/02/25 02:11:41;;;;;;;2.42;0.90;;;7.30;99.90;;;;;;4095190;28;20047;-68
2024/02/25 02:13:42;;;;;;;0.57;0.52;;;7.30;99.90;;;;;;4088279;29;20028;-68
2024/02/25 02:15:43;;;;;;;1.90;0.90;;;7.30;99.90;;;;;;4093616;28;20027;-67
2024/02/25 02:17:44;;;;;;;0.95;0.60;;;7.30;99.90;;;;;;4075140;29;20106;-68
2024/02/25 02:19:46;;;;;;;1.57;0.67;;;7.30;99.90;;;;;;4094583;28;20031;-68
2024/02/25 02:21:50;;;;;;;1.02;0.55;;;7.30;99.90;;;;;;4096621;28;20135;-69
2024/02/25 02:23:53;;;;;;;2.03;1.08;;;7.30;99.90;;;;;;4093561;28;20421;-68
2024/02/25 02:25:53;;;;;;;;;;;7.30;99.90;;;;;;4094794;28;20111;-69
2024/02/25 02:27:54;;;;;;;2.67;1.15;;;7.30;99.90;;;;;;4079191;29;19965;-69
2024/02/25 02:29:54;;;;;;;1.20;0.75;;;7.30;99.90;;;;;;4092693;28;20051;-68
2024/02/25 02:31:59;;;;;;;1.70;0.80;;;7.30;99.90;;;;;;4091080;28;20023;-70
2024/02/25 02:34:00;;;;;;;0.73;0.50;;;7.30;99.90;;;;;;4075317;28;20027;-70
2024/02/25 02:36:01;;;;;;;1.33;0.70;;;7.30;99.90;;;;;;4093489;28;20038;-70
2024/02/25 02:38:02;;;;;;;1.48;0.80;;;7.30;99.90;;;;;;4092075;28;20059;-70
2024/02/25 02:40:04;;;;;;;1.95;0.73;;;7.30;99.90;;;;;;4090610;28;20042;-69
2024/02/25 02:42:05;;;;;;;2.72;1.08;;;7.30;99.90;;;;;;4084919;28;20465;-70
2024/02/25 02:44:06;;;;;;;1.92;0.65;;;7.30;99.90;;;;;;4092272;28;20055;-68
2024/02/25 02:46:07;;;;;;;2.65;0.80;;;7.30;99.90;;;;;;4086937;28;20047;-68
2024/02/25 02:48:09;;;;;;;0.88;0.70;;;7.40;99.90;;;;;;4092507;28;20074;-67
2024/02/25 02:50:10;;;;;;;2.33;0.80;;;7.40;99.90;;;;;;4079950;28;20078;-68
2024/02/25 02:52:11;;;;;;;1.05;0.77;;;7.30;99.90;;;;;;4085638;28;20043;-68
2024/02/25 02:54:11;;;;;;;2.13;0.80;;;7.30;99.90;;;;;;4089356;28;20565;-67
2024/02/25 02:56:12;;;;;;;0.98;0.65;;;7.40;99.90;;;;;;4071557;29;20558;-66
2024/02/25 02:58:13;;;;;;;2.03;0.77;;;7.40;99.90;;;;;;4091368;28;20497;-67
2024/02/25 03:00:14;;;;;;;2.17;0.70;;;7.30;99.90;;;;;;4087734;28;20094;-67
2024/02/25 03:02:15;;;;;;;4.18;0.93;;;7.40;99.90;;;;;;4091727;28;20047;-67
2024/02/25 03:04:16;;;;;;;1.50;0.60;;;7.40;99.90;;;;;;4090282;28;20508;-66
2024/02/25 03:06:19;;;;;;;1.42;0.90;;;7.40;99.90;;;;;;4087347;29;20390;-69
2024/02/25 03:08:20;;;;;;;2.58;0.80;;;7.30;99.90;;;;;;4074975;28;20494;-66
2024/02/25 03:10:21;;;;;;;1.70;0.80;;;7.40;99.90;;;;;;4093679;28;20039;-67
2024/02/25 03:12:21;;;;;;;1.88;0.90;;;7.40;99.90;;;;;;4095409;28;20042;-69
2024/02/25 03:14:22;;;;;;;1.27;0.60;;;7.40;99.90;;;;;;4097430;28;20101;-66
2024/02/25 03:16:22;;;;;;;1.05;0.70;;;7.40;99.90;;;;;;4077943;29;20119;-67
2024/02/25 03:18:23;;;;;;;1.15;0.73;;;7.30;99.90;;;;;;4094443;28;20094;-66
2024/02/25 03:20:24;;;;;;;1.33;0.80;;;7.30;99.90;;;;;;4093290;28;20121;-66
2024/02/25 03:22:24;;;;;;;1.63;0.70;;;7.40;99.90;;;;;;4094971;28;20130;-66
2024/02/25 03:24:25;;;;;;;2.58;0.80;;;7.40;99.90;;;;;;4093878;28;20134;-69
2024/02/25 03:26:26;;;;;;;1.85;0.80;;;7.30;99.90;;;;;;4093465;28;20039;-68
2024/02/25 03:28:27;;;;;;;1.95;1.00;;;7.30;99.90;;;;;;4094085;28;20055;-67
2024/02/25 03:30:27;;;;;;;0.80;0.50;;;7.20;99.90;;;;;;4093863;28;20047;-66
2024/02/25 03:32:28;;;;;;;0.40;0.40;;;7.20;99.90;;;;;;4094248;28;20031;-68
2024/02/25 03:34:28;;;;;;;1.77;0.85;;;7.20;99.90;;;;;;4094330;28;20046;-67
2024/02/25 03:36:29;;;;;;;1.65;0.50;;;7.20;99.90;;;;;;4094092;28;20043;-66
2024/02/25 03:38:30;;;;;;;5.30;0.93;;;7.20;99.90;;;;;;4096305;28;20355;-70
2024/02/25 03:40:31;;;;;;;1.05;0.65;;;7.20;99.90;;;;;;4095311;28;20070;-68
2024/02/25 03:42:31;;;;;;;0.73;0.50;;;7.20;99.90;;;;;;4077348;29;20031;-67
2024/02/25 03:44:32;;;;;;;2.05;0.77;;;7.30;99.90;;;;;;4099023;28;20046;-67
2024/02/25 03:46:32;;;;;;;0.98;0.60;;;7.30;99.90;;;;;;4081722;28;20544;-68
2024/02/25 03:48:33;;;;;;;2.58;0.95;;;7.30;99.90;;;;;;4093481;28;20035;-68
2024/02/25 03:50:34;;;;;;;0.52;0.32;;;7.30;99.90;;;;;;4094580;28;20050;-67
2024/02/25 03:52:34;;;;;;;0.63;0.40;;;7.30;99.90;;;;;;4091032;28;20106;-68
2024/02/25 03:54:35;;;;;;;0.98;0.52;;;7.30;99.90;;;;;;4095370;28;20544;-67
2024/02/25 03:56:35;;;;;;;1.20;0.65;;;7.30;99.90;;;;;;4092233;28;20505;-70
2024/02/25 03:58:36;;;;;;;1.95;0.50;;;7.30;99.90;;;;;;4093590;28;20516;-70
2024/02/25 04:00:37;;;;;;;2.05;0.73;;;7.30;99.90;;;;;;4092264;28;22711;-70
2024/02/25 04:02:37;;;;;;;0.68;0.50;;;7.20;99.90;;;;;;4094346;28;20393;-69
2024/02/25 04:04:39;;;;;;;2.45;0.75;;;7.20;99.90;;;;;;4094427;28;20118;-68
2024/02/25 04:06:40;;;;;;;1.30;0.60;;;7.20;99.90;;;;;;4093785;28;20512;-70
2024/02/25 04:08:41;;;;;;;2.25;0.55;;;7.10;99.90;;;;;;4093989;28;20035;-71
2024/02/25 04:10:41;;;;;;;1.08;0.47;;;7.10;99.90;;;;;;4090853;28;20400;-70
2024/02/25 04:12:42;;;;;;;0.95;0.40;;;7.10;99.90;;;;;;4097801;28;20429;-70
2024/02/25 04:14:42;;;;;;;0.43;0.40;;;7.10;99.90;;;;;;4102049;28;20476;-70
2024/02/25 04:16:44;;;;;;;0.40;0.40;;;7.10;99.90;;;;;;4086020;29;20481;-69
2024/02/25 04:18:44;;;;;;;0.32;0.30;;;7.10;99.90;;;;;;4096289;28;20492;-70
2024/02/25 04:20:45;;;;;;;0.38;0.20;;;7.10;99.90;;;;;;4097035;28;20035;-70
2024/02/25 04:22:45;;;;;;;0.80;0.38;;;7.10;99.90;;;;;;4080089;28;20032;-70
2024/02/25 04:24:46;;;;;;;0.63;0.50;;;7.10;99.90;;;;;;4097122;28;20040;-70
2024/02/25 04:26:48;;;;;;;0.38;0.38;;;7.00;99.90;;;;;;4095835;28;20043;-70
2024/02/25 04:28:49;;;;;;;0.90;0.50;;;7.00;99.90;;;;;;4096948;28;20043;-70
2024/02/25 04:30:49;;;;;;;1.75;0.68;;;7.10;99.90;;;;;;4096594;28;20066;-70
2024/02/25 04:32:50;;;;;;;1.02;0.47;;;7.10;99.90;;;;;;4097296;28;20130;-70
2024/02/25 04:34:51;;;;;;;0.80;0.45;;;7.10;99.90;;;;;;4096076;28;20038;-70
2024/02/25 04:36:51;;;;;;;0.40;0.40;;;7.10;99.90;;;;;;4079603;29;20024;-71
2024/02/25 04:38:52;;;;;;;1.75;0.40;;;7.10;99.90;;;;;;4095859;28;20457;-72
2024/02/25 04:40:53;;;;;;;0.85;0.50;;;7.20;99.90;;;;;;4095133;28;20111;-71
2024/02/25 04:42:54;;;;;;;1.30;0.60;;;7.20;99.90;;;;;;4080207;29;20042;-72
2024/02/25 04:44:54;;;;;;;0.75;0.45;;;7.20;99.90;;;;;;4097057;29;20046;-73
2024/02/25 04:46:55;;;;;;;1.08;0.60;;;7.10;99.90;;;;;;4093770;28;20046;-72
2024/02/25 04:48:55;;;;;;;1.33;0.60;;;7.10;99.90;;;;;;4096873;28;20081;-70
2024/02/25 04:50:56;;;;;;;0.77;0.47;;;7.10;99.90;;;;;;4095313;28;20038;-72
2024/02/25 04:52:57;;;;;;;1.48;0.65;;;7.10;99.90;;;;;;4096881;28;20067;-71
2024/02/25 04:54:57;;;;;;;2.70;0.52;;;7.10;99.90;;;;;;4097295;28;20034;-71
2024/02/25 04:56:58;;;;;;;0.82;0.57;;;7.00;99.90;;;;;;4096404;28;20489;-71
2024/02/25 04:58:58;;;;;;;0.65;0.57;;;7.00;99.90;;;;;;4086594;29;20032;-70
2024/02/25 05:00:59;;;;;;;3.00;0.75;;;7.00;99.90;;;;;;4103219;28;20026;-71
2024/02/25 05:03:01;;;;;;;1.30;0.50;;;7.00;99.90;;;;;;4096784;28;20102;-71
2024/02/25 05:05:01;;;;;;;3.67;0.60;;;7.00;99.90;;;;;;4096159;28;20122;-71
2024/02/25 05:07:02;;;;;;;0.90;0.52;;;7.00;99.90;;;;;;4096573;28;20035;-72
2024/02/25 05:09:03;;;;;;;0.57;0.45;;;7.00;99.90;;;;;;4093627;28;20039;-71
2024/02/25 05:11:04;;;;;;;3.63;0.57;;;7.10;99.90;;;;;;4094226;28;20107;-67
2024/02/25 05:13:05;;;;;;;1.08;0.63;;;7.00;99.90;;;;;;4097020;28;20036;-67
2024/02/25 05:15:06;;;;;;;1.20;0.63;;;7.00;99.90;;;;;;4094009;28;20031;-71
2024/02/25 05:17:07;;;;;;;0.85;0.50;;;7.00;99.90;;;;;;4096636;28;20493;-69
2024/02/25 05:19:08;;;;;;;1.05;0.50;;;7.00;99.90;;;;;;4097362;28;20194;-68
2024/02/25 05:21:08;;;;;;;1.13;0.30;;;7.00;99.90;;;;;;4095289;28;20069;-70
2024/02/25 05:23:09;;;;;;;0.20;0.20;;;7.10;99.90;;;;;;4095122;28;20399;-71
2024/02/25 05:25:12;;;;;;;0.25;0.25;;;7.00;99.90;;;;;;4093923;28;20475;-70
2024/02/25 05:27:13;;;;;;;0.50;0.22;;;7.00;99.90;;;;;;4096726;28;20043;-72
2024/02/25 05:29:13;;;;;;;1.33;0.50;;;7.00;99.90;;;;;;4092570;28;20042;-71
2024/02/25 05:31:16;;;;;;;1.40;0.68;;;7.00;99.90;;;;;;4095230;28;20039;-67
2024/02/25 05:33:16;;;;;;;1.10;0.40;;;6.90;99.90;;;;;;4096538;28;20039;-67
2024/02/25 05:35:17;;;;;;;1.00;0.52;;;7.00;99.90;;;;;;4095751;28;20031;-67
2024/02/25 05:37:18;;;;;;;1.55;0.50;;;7.00;99.90;;;;;;4096716;28;20118;-68
2024/02/25 05:39:18;;;;;;;2.17;0.70;;;6.90;99.90;;;;;;4094832;28;20102;-67
2024/02/25 05:41:19;;;;;;;0.75;0.40;;;7.00;99.90;;;;;;4091753;28;20501;-68
2024/02/25 05:43:19;;;;;;;0.90;0.47;;;7.00;99.90;;;;;;4095514;28;20090;-67
2024/02/25 05:45:20;;;;;;;0.40;0.40;;;7.00;99.90;;;;;;4092804;28;20070;-69
2024/02/25 05:47:21;;;;;;;1.13;0.40;;;6.90;99.90;;;;;;4095160;28;20404;-66
2024/02/25 05:49:21;;;;;;;0.47;0.40;;;6.90;99.90;;;;;;4095391;28;20058;-67
2024/02/25 05:51:22;;;;;;;1.17;0.40;;;6.90;99.90;;;;;;4090946;28;20050;-67
2024/02/25 05:53:23;;;;;;;1.95;0.50;;;7.00;99.90;;;;;;4076788;28;20036;-67
2024/02/25 05:55:24;;;;;;;1.25;0.60;;;7.00;99.90;;;;;;4094465;28;20525;-68
2024/02/25 05:57:24;;;;;;;1.25;0.40;;;7.00;99.90;;;;;;4097025;28;20039;-68
2024/02/25 05:59:25;;;;;;;0.38;0.30;;;7.00;99.90;;;;;;4096411;28;20502;-68
2024/02/25 06:01:26;;;;;;;0.57;0.30;;;7.00;99.90;;;;;;4095416;28;21669;-67
2024/02/25 06:03:27;;;;;;;1.25;0.70;;;7.00;99.90;;;;;;4080086;28;20050;-67
2024/02/25 06:05:30;;;;;;;1.42;0.50;;;7.00;99.90;;;;;;4090634;28;20145;-67
2024/02/25 06:07:31;;;;;;;1.20;0.43;;;7.00;99.90;;;;;;4093483;28;20031;-69
2024/02/25 06:09:31;;;;;;;0.65;0.40;;;7.00;99.90;;;;;;4094453;28;20035;-67
2024/02/25 06:11:32;;;;;;;2.53;1.00;;;7.00;99.90;;;;;;4092140;28;20059;-67
2024/02/25 06:13:32;;;;;;;1.92;0.80;;;7.00;99.90;;;;;;4095434;28;20040;-68
2024/02/25 06:15:33;;;;;;;2.50;1.10;;;7.00;99.90;;;;;;4094491;28;20039;-68
2024/02/25 06:17:34;;;;;;;2.67;1.15;;;7.00;99.90;;;;;;4093628;28;20035;-68
2024/02/25 06:19:35;;;;;;;2.80;1.13;;;7.00;99.90;;;;;;4098074;28;20035;-69
2024/02/25 06:21:36;;;;;;;1.02;0.60;;;7.00;99.90;;;;;;4094970;28;20502;-68
2024/02/25 06:23:38;;;;;;;2.10;1.02;;;7.00;99.90;;;;;;4076293;28;20055;-69
2024/02/25 06:25:38;;;;;;;1.75;0.77;;;7.00;99.90;;;;;;4094188;28;20039;-69
2024/02/25 06:27:39;;;;;;;1.95;1.02;;;7.00;99.90;;;;;;4095306;28;20392;-70
2024/02/25 06:29:40;;;;;;;1.10;0.60;;;7.10;99.90;;;;;;4096551;28;20505;-70
2024/02/25 06:31:40;;;;;;;2.20;1.00;;;7.10;99.90;;;;;;4078153;28;20107;-69
2024/02/25 06:33:41;;;;;;;3.63;1.73;;;7.10;99.90;;;;;;4085301;28;20039;-69
2024/02/25 06:35:42;;;;;;;2.00;1.00;;;7.10;99.90;;;;;;4086168;28;20047;-69
2024/02/25 06:37:42;;;;;;;2.47;1.10;;;7.10;99.90;;;;;;4086858;28;20489;-69
2024/02/25 06:39:43;;;;;;;1.60;0.80;;;7.10;99.90;;;;;;4081634;28;20090;-69
2024/02/25 06:41:43;;;;;;;2.30;1.33;;;7.10;99.90;;;;;;4078037;29;20039;-69
2024/02/25 06:43:44;;;;;;;0.93;0.52;;;7.10;99.90;;;;;;4094376;28;20081;-69
2024/02/25 06:45:45;;;;;;;0.60;0.50;;;7.20;99.90;;;;;;4093315;28;20474;-70
2024/02/25 06:47:47;;;;;;;0.35;0.35;;;7.10;99.90;;;;;;4092461;28;20456;-71
2024/02/25 06:49:47;;;;;;;0.20;0.20;;;7.20;99.90;;;;;;4072808;29;20031;-70
2024/02/25 06:51:48;;;;;;;0.75;0.47;;;7.20;99.90;;;;;;4093332;28;20879;-70
2024/02/25 06:53:49;;;;;;;0.57;0.50;;;7.10;99.90;;;;;;4092450;28;20118;-69
2024/02/25 06:55:49;;;;;;;1.75;0.73;;;7.20;99.90;;;;;;4089432;28;20027;-69
2024/02/25 06:57:50;;;;;;;0.52;0.40;;;7.20;99.90;;;;;;4094375;28;20114;-70
2024/02/25 06:59:50;;;;;;;0.70;0.40;;;7.20;99.90;;;;;;4092556;28;20031;-69
2024/02/25 07:01:51;;;;;;;2.75;0.30;;;7.20;99.90;;;;;;4093250;28;20027;-69
2024/02/25 07:03:52;;;;;;;0.40;0.40;;;7.20;99.90;;;;;;4093926;28;20374;-69
2024/02/25 07:05:52;;;;;;;1.02;0.68;;;7.20;99.90;;;;;;4092785;28;20031;-70
2024/02/25 07:07:53;;;;;;;0.25;0.25;;;7.20;99.90;;;;;;4094974;28;20039;-69
2024/02/25 07:09:57;;;;;;;0.45;0.40;;;7.20;99.90;;;;;;4095723;28;20516;-69
2024/02/25 07:11:57;;;;;;;0.85;0.30;;;7.30;99.90;;;;;;4094882;28;20109;-69
2024/02/25 07:13:58;;;;;;;0.40;0.30;;;7.30;99.90;;;;;;4094297;28;20027;-69
2024/02/25 07:15:59;;;;;;;1.02;0.43;;;7.40;99.90;;;;;;4091660;28;20163;-70
2024/02/25 07:17:59;;;;;;;1.00;0.57;;;7.40;99.90;;;;;;4095784;28;21462;-69
2024/02/25 07:20:00;;;;;;;1.15;0.45;;;7.40;99.90;;;;;;4092963;28;20496;-68
2024/02/25 07:22:01;;;;;;;0.40;0.30;;;7.40;99.90;;;;;;4093609;28;20110;-69
2024/02/25 07:24:02;;;;;;;0.77;0.40;;;7.40;99.90;;;;;;4097938;28;20031;-68
2024/02/25 07:26:03;;;;;;;0.82;0.50;;;7.50;99.90;;;;;;4093900;28;20114;-69
2024/02/25 07:28:04;;;;;;;0.98;0.55;;;7.60;99.90;;;;;;4092143;28;20390;-68
2024/02/25 07:30:05;;;;;;;1.08;0.50;;;8.00;99.90;;;;;;4089503;28;20055;-69
2024/02/25 07:32:06;;;;;;;0.50;0.50;;;8.40;99.90;;;;;;4096438;28;20040;-67
2024/02/25 07:34:07;;;;;;;1.00;0.47;;;8.70;99.90;;;;;;4077309;29;20031;-69
2024/02/25 07:36:11;;;;;;;1.00;0.70;;;9.10;99.90;;;;;;4093953;28;20049;-67
2024/02/25 07:38:12;;;;;;;0.70;0.50;;;9.60;99.90;;;;;;4098966;28;20047;-68
2024/02/25 07:40:13;;;;;;;1.02;0.60;;;10.00;99.90;;;;;;4096475;28;20056;-69
2024/02/25 07:42:13;;;;;;;0.47;0.35;;;10.40;99.90;;;;;;4094858;28;20039;-69
2024/02/25 07:44:14;;;;;;;0.60;0.50;;;10.40;99.90;;;;;;4092661;28;20102;-69
2024/02/25 07:46:14;;;;;;;4.03;0.43;;;10.60;99.90;;;;;;4083954;29;20039;-70
2024/02/25 07:48:15;;;;;;;0.57;0.30;;;10.80;99.90;;;;;;4097262;28;20039;-69
2024/02/25 07:50:16;;;;;;;0.60;0.40;;;11.00;99.90;;;;;;4094445;28;20035;-69
2024/02/25 07:52:16;;;;;;;0.70;0.50;;;11.30;99.90;;;;;;4097851;28;20031;-69
2024/02/25 07:54:17;;;;;;;0.50;0.30;;;11.10;99.90;;;;;;4072472;28;20032;-70
2024/02/25 07:56:19;;;;;;;0.73;0.40;;;10.80;99.90;;;;;;4096383;28;20036;-70
2024/02/25 07:58:21;;;;;;;0.55;0.32;;;10.50;99.90;;;;;;4098495;28;20583;-70
2024/02/25 08:00:21;;;;;;;0.60;0.40;;;10.30;99.90;;;;;;4096115;28;20039;-69
2024/02/25 08:02:22;;;;;;;0.95;0.70;;;10.10;99.90;;;;;;4099629;28;20511;-70
2024/02/25 08:04:23;;;;;;;0.60;0.50;;;9.90;99.90;;;;;;4098512;28;20047;-70
2024/02/25 08:06:28;;;;;;;0.50;0.40;;;9.80;99.90;;;;;;4102183;28;20038;-70
2024/02/25 08:08:28;;;;;;;1.20;0.50;;;9.70;99.90;;;;;;4098155;28;20043;-69
2024/02/25 08:10:29;;;;;;;0.95;0.70;;;9.60;99.90;;;;;;4096924;28;20488;-69
2024/02/25 08:12:30;;;;;;;0.30;0.30;;;9.50;99.90;;;;;;4098033;28;20035;-70
2024/02/25 08:14:30;;;;;;;1.10;0.60;;;9.40;99.90;;;;;;4098969;28;20051;-69
2024/02/25 08:16:32;;;;;;;0.77;0.40;;;9.30;99.90;;;;;;4095508;28;20535;-71
2024/02/25 08:18:34;;;;;;;2.33;1.67;;;9.30;99.90;;;;;;4094480;28;20035;-70
2024/02/25 08:20:34;;;;;;;1.75;0.77;;;9.20;99.90;;;;;;4090633;28;20055;-69
2024/02/25 08:22:38;;;;;;;1.48;0.38;;;9.10;99.90;;;;;;4096123;28;20039;-70
2024/02/25 08:24:38;;;;;;;0.80;0.52;;;9.00;99.90;;;;;;4097450;28;20035;-70
2024/02/25 08:26:39;;;;;;;0.88;0.50;;;9.00;99.90;;;;;;4096996;28;20130;-69
2024/02/25 08:28:40;;;;;;;0.70;0.50;;;8.90;99.90;;;;;;4096581;28;20442;-70
2024/02/25 08:30:41;;;;;;;1.05;0.52;;;8.80;99.90;;;;;;4093547;28;20468;-69
2024/02/25 08:32:41;;;;;;;0.85;0.50;;;8.80;99.90;;;;;;4078634;28;20507;-69
2024/02/25 08:34:42;;;;;;;0.57;0.55;;;8.90;99.90;;;;;;4095377;28;20509;-70
2024/02/25 08:36:43;;;;;;;2.50;1.20;;;9.20;99.90;;;;;;4061784;29;20072;-70
2024/02/25 08:38:44;;;;;;;4.10;1.23;;;9.50;99.90;;;;;;4077440;29;20052;-70
2024/02/25 08:40:44;;;;;;;1.30;0.70;;;9.70;99.90;;;;;;4092923;28;20042;-69
2024/02/25 08:42:45;;;;;;;1.13;0.52;;;9.70;99.90;;;;;;4092129;28;20036;-71
2024/02/25 08:44:46;;;;;;;1.30;0.68;;;9.70;99.90;;;;;;4091823;28;20146;-70
2024/02/25 08:46:47;;;;;;;2.40;0.70;;;9.70;99.90;;;;;;4092774;28;20504;-70
2024/02/25 08:48:47;;;;;;;1.45;0.60;;;9.70;99.90;;;;;;4094889;28;20101;-69
2024/02/25 08:50:48;;;;;;;0.70;0.50;;;9.60;99.90;;;;;;4097053;28;20030;-69
2024/02/25 08:52:48;;;;;;;1.27;0.88;;;9.50;99.90;;;;;;4068783;29;20067;-71
2024/02/25 08:54:49;;;;;;;0.70;0.47;;;9.60;99.90;;;;;;4099178;28;20035;-70
2024/02/25 08:56:50;;;;;;;0.43;0.32;;;9.60;99.90;;;;;;4100965;28;20027;-69
2024/02/25 08:58:50;;;;;;;0.90;0.50;;;9.60;99.90;;;;;;4085947;29;20046;-68
2024/02/25 09:00:51;;;;;;;0.80;0.43;;;9.60;99.90;;;;;;4093762;28;20032;-69
2024/02/25 09:02:52;;;;;;;0.70;0.40;;;9.60;99.90;;;;;;4099362;28;20379;-67
2024/02/25 09:04:53;;;;;;;1.98;0.70;;;9.60;99.90;;;;;;4096574;28;20091;-67
2024/02/25 09:06:56;;;;;;;0.32;0.20;;;9.60;99.90;;;;;;4093620;28;20122;-68
2024/02/25 09:08:57;;;;;;;1.10;0.40;;;9.50;99.90;;;;;;4096328;28;20445;-67
2024/02/25 09:10:57;;;;;;;1.02;0.50;;;9.40;99.90;;;;;;4094704;28;20041;-68
2024/02/25 09:12:58;;;;;;;0.60;0.60;;;9.40;99.90;;;;;;4096865;28;20126;-68
2024/02/25 09:14:59;;;;;;;2.10;0.50;;;9.40;99.90;;;;;;4096578;28;20081;-67
2024/02/25 09:16:59;;;;;;;1.15;0.30;;;9.30;99.90;;;;;;4091435;28;20031;-68
2024/02/25 09:19:00;;;;;;;1.27;0.40;;;9.30;99.90;;;;;;4097150;28;20034;-68
2024/02/25 09:21:01;;;;;;;1.42;0.60;;;9.20;99.90;;;;;;4094629;28;20032;-69
2024/02/25 09:23:04;;;;;;;2.42;0.43;;;9.10;99.90;;;;;;4096607;28;20054;-67
2024/02/25 09:25:05;;;;;;;0.95;0.50;;;9.10;99.90;;;;;;4095468;28;20113;-69
2024/02/25 09:27:06;;;;;;;0.73;0.40;;;9.10;99.90;;;;;;4098190;28;20028;-67
2024/02/25 09:29:06;;;;;;;2.63;0.52;;;9.10;99.90;;;;;;4094165;28;20042;-67
2024/02/25 09:31:08;;;;;;;3.97;0.63;;;9.00;99.90;;;;;;4095089;28;20134;-68
2024/02/25 09:33:10;;;;;;;2.58;0.35;;;9.00;99.90;;;;;;4099816;28;20035;-69
2024/02/25 09:35:14;;;;;;;1.48;0.52;;;8.90;99.90;;;;;;4098871;28;20046;-68
2024/02/25 09:37:14;;;;;;;1.17;0.47;;;9.00;99.90;;;;;;4097761;28;20049;-68
2024/02/25 09:39:16;;;;;;;0.47;0.47;;;9.00;99.90;;;;;;4094739;28;20067;-69
2024/02/25 09:41:28;;;;;;;1.02;0.50;;;9.00;99.90;;;;;;4095354;28;20043;-68
2024/02/25 09:43:29;;;;;;;0.50;0.33;;;9.10;99.90;;;;;;4099535;28;20040;-67
2024/02/25 09:45:34;;;;;;;0.57;0.38;;;9.10;99.90;;;;;;4095129;28;20043;-67
2024/02/25 09:47:35;;;;;;;0.75;0.32;;;9.20;99.90;;;;;;4093272;28;20377;-69
2024/02/25 09:49:36;;;;;;;0.40;0.38;;;9.20;99.90;;;;;;4093516;28;20039;-68
2024/02/25 09:51:38;;;;;;;1.05;0.50;;;9.20;99.90;;;;;;4094347;28;20390;-67
2024/02/25 09:53:40;;;;;;;1.02;0.52;;;9.20;99.90;;;;;;4091654;28;20031;-68
2024/02/25 09:55:42;;;;;;;0.30;0.30;;;9.20;99.90;;;;;;4093710;28;20042;-68
2024/02/25 09:57:43;;;;;;;;;;;9.30;99.90;;;;;;4096780;28;20131;-68
2024/02/25 09:59:44;;;;;;;0.55;0.35;;;9.40;99.90;;;;;;4096375;28;19919;-68
2024/02/25 10:01:48;;;;;;;0.75;0.43;;;9.30;99.90;;;;;;4091127;28;20478;-66
2024/02/25 10:03:48;;;;;;;0.65;0.47;;;9.40;99.90;;;;;;4093546;28;20038;-66
2024/02/25 10:05:49;;;;;;;0.77;0.40;;;9.40;99.90;;;;;;4095158;28;20043;-67
2024/02/25 10:08:11;;;;;;;1.15;0.63;;;9.40;99.90;;;;;;4094322;28;20041;-66
2024/02/25 10:10:12;;;;;;;1.10;0.60;;;9.50;99.90;;;;;;4090765;28;20511;-67
2024/02/25 10:12:12;;;;;;;1.58;0.68;;;9.50;99.90;;;;;;4095400;28;20110;-68
2024/02/25 10:14:16;;;;;;;4.60;0.85;;;9.50;99.90;;;;;;4095092;28;20026;-68
2024/02/25 10:16:18;;;;;;;0.85;0.55;;;9.50;99.90;;;;;;4095016;28;20066;-68
2024/02/25 10:18:19;;;;;;;1.67;0.80;;;9.50;99.90;;;;;;4095265;28;20035;-68
2024/02/25 10:20:19;;;;;;;0.60;0.50;;;9.40;99.90;;;;;;4094124;28;20397;-69
2024/02/25 10:22:20;;;;;;;1.10;0.65;;;9.50;99.90;;;;;;4094251;28;20476;-68
2024/02/25 10:24:29;;;;;;;1.13;0.55;;;9.50;99.90;;;;;;4096167;28;20405;-68
2024/02/25 10:26:29;;;;;;;1.52;0.60;;;9.40;99.90;;;;;;4095821;28;20079;-68
2024/02/25 10:28:30;;;;;;;1.17;0.52;;;9.40;99.90;;;;;;4094651;28;20027;-68
2024/02/25 10:30:30;;;;;;;1.50;0.68;;;9.50;99.90;;;;;;4095311;28;20105;-68
2024/02/25 10:32:35;;;;;;;1.15;0.52;;;9.50;99.90;;;;;;4100909;28;20031;-69
2024/02/25 10:34:36;;;;;;;0.77;0.45;;;9.50;99.90;;;;;;4094988;28;20193;-68
2024/02/25 10:36:37;;;;;;;3.22;0.50;;;9.50;99.90;;;;;;4091721;28;20130;-68
2024/02/25 10:38:44;;;;;;;0.77;0.50;;;9.50;99.90;;;;;;4090977;28;20090;-68